sensor_id;sensor_type;location;lat;lon;timestamp;pressure;altitude;pressure_sealevel;temperature;humidity
30873;BME280;17579;42.690;2.586;2023-02-23T00:02:23;96971.63;;;12.57;64.71
30873;BME280;17579;42.690;2.586;2023-02-23T00:04:49;96974.28;;;12.57;64.88
30873;BME280;17579;42.690;2.586;2023-02-23T00:07:15;96973.13;;;12.60;64.68
30873;BME280;17579;42.690;2.586;2023-02-23T00:09:44;96966.16;;;12.59;64.73
30873;BME280;17579;42.690;2.586;2023-02-23T00:12:11;96961.66;;;12.59;64.97
30873;BME280;17579;42.690;2.586;2023-02-23T00:14:37;96955.69;;;12.57;64.86
30873;BME280;17579;42.690;2.586;2023-02-23T00:17:03;96958.69;;;12.54;64.58
30873;BME280;17579;42.690;2.586;2023-02-23T00:19:29;96959.84;;;12.52;64.69
30873;BME280;17579;42.690;2.586;2023-02-23T00:21:57;96954.69;;;12.50;64.71
30873;BME280;17579;42.690;2.586;2023-02-23T00:24:23;96951.53;;;12.46;64.50
30873;BME280;17579;42.690;2.586;2023-02-23T00:26:51;96940.78;;;12.40;64.42
30873;BME280;17579;42.690;2.586;2023-02-23T00:29:19;96935.59;;;12.38;64.50
30873;BME280;17579;42.690;2.586;2023-02-23T00:31:46;96942.25;;;12.34;64.40
30873;BME280;17579;42.690;2.586;2023-02-23T00:34:14;96934.59;;;12.31;64.59
30873;BME280;17579;42.690;2.586;2023-02-23T00:36:40;96932.13;;;12.29;64.35
30873;BME280;17579;42.690;2.586;2023-02-23T00:39:10;96924.50;;;12.26;64.40
30873;BME280;17579;42.690;2.586;2023-02-23T00:41:56;96915.72;;;12.26;64.26
30873;BME280;17579;42.690;2.586;2023-02-23T00:44:27;96922.81;;;12.25;64.36
30873;BME280;17579;42.690;2.586;2023-02-23T00:46:52;96922.34;;;12.22;64.43
30873;BME280;17579;42.690;2.586;2023-02-23T00:49:19;96909.41;;;12.19;64.47
30873;BME280;17579;42.690;2.586;2023-02-23T00:51:45;96910.41;;;12.18;64.39
30873;BME280;17579;42.690;2.586;2023-02-23T00:54:12;96906.41;;;12.13;64.42
30873;BME280;17579;42.690;2.586;2023-02-23T00:56:38;96896.97;;;12.11;64.27
30873;BME280;17579;42.690;2.586;2023-02-23T00:59:04;96890.03;;;12.10;64.28
30873;BME280;17579;42.690;2.586;2023-02-23T01:01:30;96896.13;;;12.10;64.44
30873;BME280;17579;42.690;2.586;2023-02-23T01:03:55;96895.00;;;12.13;64.55
30873;BME280;17579;42.690;2.586;2023-02-23T01:06:21;96893.84;;;12.16;64.60
30873;BME280;17579;42.690;2.586;2023-02-23T01:08:49;96888.38;;;12.17;64.32
30873;BME280;17579;42.690;2.586;2023-02-23T01:11:18;96888.03;;;12.20;64.60
30873;BME280;17579;42.690;2.586;2023-02-23T01:13:45;96884.88;;;12.25;64.38
30873;BME280;17579;42.690;2.586;2023-02-23T01:16:14;96876.94;;;12.25;64.24
30873;BME280;17579;42.690;2.586;2023-02-23T01:18:40;96883.72;;;12.27;64.19
30873;BME280;17579;42.690;2.586;2023-02-23T01:21:14;96882.72;;;12.20;63.87
30873;BME280;17579;42.690;2.586;2023-02-23T01:23:41;96879.09;;;12.21;63.88
30873;BME280;17579;42.690;2.586;2023-02-23T01:28:37;96880.75;;;12.14;63.62
30873;BME280;17579;42.690;2.586;2023-02-23T01:31:07;96872.28;;;12.10;64.29
30873;BME280;17579;42.690;2.586;2023-02-23T01:33:33;96870.31;;;12.12;64.28
30873;BME280;17579;42.690;2.586;2023-02-23T01:35:59;96869.63;;;12.10;63.92
30873;BME280;17579;42.690;2.586;2023-02-23T01:38:25;96866.31;;;12.08;64.04
30873;BME280;17579;42.690;2.586;2023-02-23T01:40:50;96858.72;;;12.05;64.31
30873;BME280;17579;42.690;2.586;2023-02-23T01:43:21;96851.06;;;12.02;64.15
30873;BME280;17579;42.690;2.586;2023-02-23T01:45:52;96846.94;;;12.00;63.99
30873;BME280;17579;42.690;2.586;2023-02-23T01:48:21;96845.44;;;11.97;64.34
30873;BME280;17579;42.690;2.586;2023-02-23T01:50:53;96845.59;;;11.95;64.04
30873;BME280;17579;42.690;2.586;2023-02-23T01:53:20;96838.31;;;11.98;63.92
30873;BME280;17579;42.690;2.586;2023-02-23T01:55:49;96835.00;;;11.95;64.10
30873;BME280;17579;42.690;2.586;2023-02-23T01:58:17;96830.00;;;11.92;63.93
30873;BME280;17579;42.690;2.586;2023-02-23T02:00:47;96832.31;;;11.87;63.99
30873;BME280;17579;42.690;2.586;2023-02-23T02:03:19;96824.84;;;11.83;64.00
30873;BME280;17579;42.690;2.586;2023-02-23T02:05:49;96828.31;;;11.83;63.77
30873;BME280;17579;42.690;2.586;2023-02-23T02:08:15;96828.00;;;11.78;63.90
30873;BME280;17579;42.690;2.586;2023-02-23T02:10:43;96824.66;;;11.76;64.10
30873;BME280;17579;42.690;2.586;2023-02-23T02:13:14;96826.97;;;11.71;63.85
30873;BME280;17579;42.690;2.586;2023-02-23T02:15:54;96820.66;;;11.64;63.87
30873;BME280;17579;42.690;2.586;2023-02-23T02:18:34;96812.38;;;11.58;64.07
30873;BME280;17579;42.690;2.586;2023-02-23T02:21:15;96816.66;;;11.51;63.99
30873;BME280;17579;42.690;2.586;2023-02-23T02:26:42;96805.88;;;11.44;63.78
30873;BME280;17579;42.690;2.586;2023-02-23T02:32:40;96795.28;;;11.44;64.34
30873;BME280;17579;42.690;2.586;2023-02-23T02:37:46;96789.03;;;11.54;64.30
30873;BME280;17579;42.690;2.586;2023-02-23T02:40:27;96787.53;;;11.51;64.45
30873;BME280;17579;42.690;2.586;2023-02-23T02:45:43;96784.06;;;11.51;64.06
30873;BME280;17579;42.690;2.586;2023-02-23T02:48:19;96784.06;;;11.51;64.23
30873;BME280;17579;42.690;2.586;2023-02-23T02:50:52;96768.50;;;11.56;64.53
30873;BME280;17579;42.690;2.586;2023-02-23T02:53:25;96767.84;;;11.54;64.47
30873;BME280;17579;42.690;2.586;2023-02-23T02:55:56;96770.50;;;11.54;64.15
30873;BME280;17579;42.690;2.586;2023-02-23T02:58:24;96749.47;;;11.52;64.39
30873;BME280;17579;42.690;2.586;2023-02-23T03:00:52;96749.13;;;11.47;64.51
30873;BME280;17579;42.690;2.586;2023-02-23T03:05:48;96744.81;;;11.46;64.53
30873;BME280;17579;42.690;2.586;2023-02-23T03:11:23;96736.06;;;11.46;64.08
30873;BME280;17579;42.690;2.586;2023-02-23T03:14:12;96736.72;;;11.39;64.28
30873;BME280;17579;42.690;2.586;2023-02-23T03:19:22;96718.19;;;11.39;63.88
30873;BME280;17579;42.690;2.586;2023-02-23T03:21:59;96723.31;;;11.41;64.29
30873;BME280;17579;42.690;2.586;2023-02-23T03:27:27;96727.44;;;11.43;64.12
30873;BME280;17579;42.690;2.586;2023-02-23T03:29:58;96720.50;;;11.42;64.10
30873;BME280;17579;42.690;2.586;2023-02-23T03:32:35;96723.31;;;11.41;64.11
30873;BME280;17579;42.690;2.586;2023-02-23T03:35:06;96714.22;;;11.43;64.05
30873;BME280;17579;42.690;2.586;2023-02-23T03:37:41;96709.72;;;11.44;64.10
30873;BME280;17579;42.690;2.586;2023-02-23T03:40:15;96706.28;;;11.43;63.89
30873;BME280;17579;42.690;2.586;2023-02-23T03:42:44;96714.50;;;11.40;64.07
30873;BME280;17579;42.690;2.586;2023-02-23T03:45:15;96697.47;;;11.35;64.00
30873;BME280;17579;42.690;2.586;2023-02-23T03:47:44;96690.88;;;11.31;64.12
30873;BME280;17579;42.690;2.586;2023-02-23T03:50:15;96680.09;;;11.24;64.33
30873;BME280;17579;42.690;2.586;2023-02-23T03:52:46;96680.25;;;11.22;64.27
30873;BME280;17579;42.690;2.586;2023-02-23T03:55:17;96676.94;;;11.20;64.51
30873;BME280;17579;42.690;2.586;2023-02-23T03:57:49;96683.88;;;11.21;64.57
30873;BME280;17579;42.690;2.586;2023-02-23T04:00:26;96679.75;;;11.19;64.45
30873;BME280;17579;42.690;2.586;2023-02-23T04:02:55;96674.09;;;11.22;64.29
30873;BME280;17579;42.690;2.586;2023-02-23T04:05:25;96675.28;;;11.19;64.31
30873;BME280;17579;42.690;2.586;2023-02-23T04:07:54;96679.09;;;11.17;63.91
30873;BME280;17579;42.690;2.586;2023-02-23T04:10:22;96672.47;;;11.13;64.16
30873;BME280;17579;42.690;2.586;2023-02-23T04:12:53;96670.97;;;11.10;64.07
30873;BME280;17579;42.690;2.586;2023-02-23T04:15:26;96666.97;;;11.06;64.09
30873;BME280;17579;42.690;2.586;2023-02-23T04:17:52;96661.84;;;11.04;63.69
30873;BME280;17579;42.690;2.586;2023-02-23T04:20:18;96663.31;;;10.99;64.22
30873;BME280;17579;42.690;2.586;2023-02-23T04:22:47;96663.50;;;10.97;64.38
30873;BME280;17579;42.690;2.586;2023-02-23T04:25:14;96672.56;;;10.95;64.42
30873;BME280;17579;42.690;2.586;2023-02-23T04:27:40;96676.22;;;10.94;64.27
30873;BME280;17579;42.690;2.586;2023-02-23T04:30:06;96680.19;;;10.89;63.91
30873;BME280;17579;42.690;2.586;2023-02-23T04:32:35;96680.97;;;10.82;63.97
30873;BME280;17579;42.690;2.586;2023-02-23T04:35:01;96673.34;;;10.79;63.92
30873;BME280;17579;42.690;2.586;2023-02-23T04:37:27;96665.41;;;10.79;64.21
30873;BME280;17579;42.690;2.586;2023-02-23T04:39:53;96669.72;;;10.80;64.34
30873;BME280;17579;42.690;2.586;2023-02-23T04:42:18;96668.91;;;10.79;64.53
30873;BME280;17579;42.690;2.586;2023-02-23T04:44:44;96662.13;;;10.77;64.48
30873;BME280;17579;42.690;2.586;2023-02-23T04:47:11;96662.13;;;10.77;64.77
30873;BME280;17579;42.690;2.586;2023-02-23T04:49:37;96651.88;;;10.73;63.96
30873;BME280;17579;42.690;2.586;2023-02-23T04:52:02;96647.06;;;10.69;64.35
30873;BME280;17579;42.690;2.586;2023-02-23T04:54:28;96647.88;;;10.69;63.95
30873;BME280;17579;42.690;2.586;2023-02-23T04:56:54;96643.72;;;10.67;64.57
30873;BME280;17579;42.690;2.586;2023-02-23T04:59:19;96632.50;;;10.65;64.45
30873;BME280;17579;42.690;2.586;2023-02-23T05:01:45;96645.88;;;10.63;64.58
30873;BME280;17579;42.690;2.586;2023-02-23T05:04:10;96647.03;;;10.61;64.64
30873;BME280;17579;42.690;2.586;2023-02-23T05:06:36;96649.69;;;10.61;64.46
30873;BME280;17579;42.690;2.586;2023-02-23T05:09:02;96647.84;;;10.61;64.42
30873;BME280;17579;42.690;2.586;2023-02-23T05:11:29;96646.53;;;10.65;64.64
30873;BME280;17579;42.690;2.586;2023-02-23T05:13:54;96638.97;;;10.70;64.47
30873;BME280;17579;42.690;2.586;2023-02-23T05:16:20;96641.63;;;10.70;64.80
30873;BME280;17579;42.690;2.586;2023-02-23T05:18:46;96631.69;;;10.72;64.89
30873;BME280;17579;42.690;2.586;2023-02-23T05:21:11;96632.34;;;10.74;65.26
30873;BME280;17579;42.690;2.586;2023-02-23T05:23:37;96642.63;;;10.78;65.44
30873;BME280;17579;42.690;2.586;2023-02-23T05:26:06;96641.44;;;10.80;65.16
30873;BME280;17579;42.690;2.586;2023-02-23T05:28:34;96638.19;;;10.86;65.26
30873;BME280;17579;42.690;2.586;2023-02-23T05:31:01;96636.03;;;10.90;65.18
30873;BME280;17579;42.690;2.586;2023-02-23T05:33:28;96635.19;;;10.89;65.15
30873;BME280;17579;42.690;2.586;2023-02-23T05:35:54;96631.41;;;10.92;65.39
30873;BME280;17579;42.690;2.586;2023-02-23T05:38:20;96641.84;;;10.94;65.43
30873;BME280;17579;42.690;2.586;2023-02-23T05:40:46;96643.34;;;10.96;65.47
30873;BME280;17579;42.690;2.586;2023-02-23T05:43:12;96639.84;;;10.96;65.42
30873;BME280;17579;42.690;2.586;2023-02-23T05:45:39;96639.03;;;10.95;65.75
30873;BME280;17579;42.690;2.586;2023-02-23T05:48:06;96639.19;;;10.94;65.66
30873;BME280;17579;42.690;2.586;2023-02-23T05:50:32;96632.75;;;10.96;65.92
30873;BME280;17579;42.690;2.586;2023-02-23T05:52:57;96627.13;;;10.99;65.69
30873;BME280;17579;42.690;2.586;2023-02-23T05:55:23;96626.28;;;10.99;65.75
30873;BME280;17579;42.690;2.586;2023-02-23T05:57:48;96630.75;;;10.98;66.06
30873;BME280;17579;42.690;2.586;2023-02-23T06:00:15;96616.53;;;10.99;66.04
30873;BME280;17579;42.690;2.586;2023-02-23T06:02:40;96620.81;;;11.00;66.16
30873;BME280;17579;42.690;2.586;2023-02-23T06:05:07;96617.19;;;11.01;65.96
30873;BME280;17579;42.690;2.586;2023-02-23T06:07:33;96602.63;;;10.97;66.01
30873;BME280;17579;42.690;2.586;2023-02-23T06:09:59;96603.47;;;10.98;65.97
30873;BME280;17579;42.690;2.586;2023-02-23T06:12:24;96608.09;;;10.96;66.19
30873;BME280;17579;42.690;2.586;2023-02-23T06:14:50;96604.13;;;11.00;66.31
30873;BME280;17579;42.690;2.586;2023-02-23T06:17:16;96597.53;;;11.04;66.31
30873;BME280;17579;42.690;2.586;2023-02-23T06:19:42;96600.00;;;11.05;66.26
30873;BME280;17579;42.690;2.586;2023-02-23T06:22:08;96609.28;;;11.09;66.47
30873;BME280;17579;42.690;2.586;2023-02-23T06:24:34;96604.47;;;11.13;66.03
30873;BME280;17579;42.690;2.586;2023-02-23T06:26:59;96597.19;;;11.15;66.02
30873;BME280;17579;42.690;2.586;2023-02-23T06:29:25;96595.38;;;11.16;66.11
30873;BME280;17579;42.690;2.586;2023-02-23T06:31:51;96599.00;;;11.15;66.26
30873;BME280;17579;42.690;2.586;2023-02-23T06:34:16;96600.66;;;11.16;66.24
30873;BME280;17579;42.690;2.586;2023-02-23T06:36:43;96596.06;;;11.18;66.45
30873;BME280;17579;42.690;2.586;2023-02-23T06:39:10;96598.38;;;11.21;66.68
30873;BME280;17579;42.690;2.586;2023-02-23T06:41:36;96596.88;;;11.26;66.63
30873;BME280;17579;42.690;2.586;2023-02-23T06:44:01;96589.59;;;11.29;66.61
30873;BME280;17579;42.690;2.586;2023-02-23T06:46:27;96586.63;;;11.23;66.71
30873;BME280;17579;42.690;2.586;2023-02-23T06:48:55;96592.22;;;11.20;66.89
30873;BME280;17579;42.690;2.586;2023-02-23T06:51:21;96592.91;;;11.22;67.09
30873;BME280;17579;42.690;2.586;2023-02-23T06:53:47;96586.63;;;11.23;67.04
30873;BME280;17579;42.690;2.586;2023-02-23T06:56:13;96595.69;;;11.29;67.00
30873;BME280;17579;42.690;2.586;2023-02-23T06:58:39;96598.03;;;11.32;67.08
30873;BME280;17579;42.690;2.586;2023-02-23T07:01:05;96595.06;;;11.35;66.93
30873;BME280;17579;42.690;2.586;2023-02-23T07:03:31;96597.53;;;11.37;66.87
30873;BME280;17579;42.690;2.586;2023-02-23T07:05:57;96608.28;;;11.35;66.85
30873;BME280;17579;42.690;2.586;2023-02-23T07:08:22;96601.66;;;11.31;66.94
30873;BME280;17579;42.690;2.586;2023-02-23T07:10:48;96599.03;;;11.31;67.20
30873;BME280;17579;42.690;2.586;2023-02-23T07:13:13;96598.69;;;11.34;67.06
30873;BME280;17579;42.690;2.586;2023-02-23T07:15:40;96603.00;;;11.35;67.15
30873;BME280;17579;42.690;2.586;2023-02-23T07:18:06;96599.19;;;11.38;66.80
30873;BME280;17579;42.690;2.586;2023-02-23T07:20:31;96597.03;;;11.41;67.00
30873;BME280;17579;42.690;2.586;2023-02-23T07:22:58;96601.16;;;11.44;67.00
30873;BME280;17579;42.690;2.586;2023-02-23T07:25:26;96602.66;;;11.47;67.05
30873;BME280;17579;42.690;2.586;2023-02-23T07:27:52;96602.31;;;11.50;66.88
30873;BME280;17579;42.690;2.586;2023-02-23T07:30:19;96616.53;;;11.49;67.00
30873;BME280;17579;42.690;2.586;2023-02-23T07:32:44;96613.72;;;11.50;67.04
30873;BME280;17579;42.690;2.586;2023-02-23T07:35:10;96610.25;;;11.50;67.18
30873;BME280;17579;42.690;2.586;2023-02-23T07:37:36;96604.63;;;11.53;67.08
30873;BME280;17579;42.690;2.586;2023-02-23T07:40:02;96602.63;;;11.55;67.05
30873;BME280;17579;42.690;2.586;2023-02-23T07:42:28;96602.16;;;11.51;67.08
30873;BME280;17579;42.690;2.586;2023-02-23T07:44:53;96607.78;;;11.48;67.25
30873;BME280;17579;42.690;2.586;2023-02-23T07:47:20;96604.28;;;11.48;67.60
30873;BME280;17579;42.690;2.586;2023-02-23T07:49:46;96601.47;;;11.49;67.68
30873;BME280;17579;42.690;2.586;2023-02-23T07:52:16;96605.13;;;11.48;67.46
30873;BME280;17579;42.690;2.586;2023-02-23T07:54:43;96599.50;;;11.51;67.33
30873;BME280;17579;42.690;2.586;2023-02-23T07:57:08;96596.69;;;11.53;67.33
30873;BME280;17579;42.690;2.586;2023-02-23T07:59:34;96599.97;;;11.55;67.24
30873;BME280;17579;42.690;2.586;2023-02-23T08:01:59;96602.47;;;11.56;67.26
30873;BME280;17579;42.690;2.586;2023-02-23T08:04:25;96599.16;;;11.54;67.41
30873;BME280;17579;42.690;2.586;2023-02-23T08:06:51;96602.78;;;11.61;67.77
30873;BME280;17579;42.690;2.586;2023-02-23T08:09:16;96607.25;;;11.69;67.39
30873;BME280;17579;42.690;2.586;2023-02-23T08:11:42;96605.28;;;11.79;67.43
30873;BME280;17579;42.690;2.586;2023-02-23T08:14:08;96601.94;;;11.86;67.26
30873;BME280;17579;42.690;2.586;2023-02-23T08:16:34;96600.09;;;11.86;66.93
30873;BME280;17579;42.690;2.586;2023-02-23T08:19:00;96613.69;;;11.83;67.10
30873;BME280;17579;42.690;2.586;2023-02-23T08:21:27;96608.91;;;11.78;67.13
30873;BME280;17579;42.690;2.586;2023-02-23T08:23:54;96610.06;;;11.76;67.15
30873;BME280;17579;42.690;2.586;2023-02-23T08:26:20;96606.75;;;11.74;67.10
30873;BME280;17579;42.690;2.586;2023-02-23T08:28:46;96598.31;;;11.70;66.94
30873;BME280;17579;42.690;2.586;2023-02-23T08:31:13;96599.81;;;11.65;67.41
30873;BME280;17579;42.690;2.586;2023-02-23T08:33:40;96604.28;;;11.64;67.52
30873;BME280;17579;42.690;2.586;2023-02-23T08:36:07;96596.81;;;11.68;67.26
30873;BME280;17579;42.690;2.586;2023-02-23T08:38:33;96604.44;;;11.71;67.31
30873;BME280;17579;42.690;2.586;2023-02-23T08:41:01;96596.66;;;11.69;67.36
30873;BME280;17579;42.690;2.586;2023-02-23T08:43:27;96580.59;;;11.71;67.25
30873;BME280;17579;42.690;2.586;2023-02-23T08:45:53;96585.41;;;11.75;67.45
30873;BME280;17579;42.690;2.586;2023-02-23T08:48:18;96591.34;;;11.77;66.97
30873;BME280;17579;42.690;2.586;2023-02-23T08:50:48;96598.81;;;11.74;66.92
30873;BME280;17579;42.690;2.586;2023-02-23T08:53:15;96595.66;;;11.78;67.40
30873;BME280;17579;42.690;2.586;2023-02-23T08:55:41;96598.94;;;11.81;67.17
30873;BME280;17579;42.690;2.586;2023-02-23T08:58:07;96600.78;;;11.80;67.17
30873;BME280;17579;42.690;2.586;2023-02-23T09:00:35;96597.16;;;11.81;67.26
30873;BME280;17579;42.690;2.586;2023-02-23T09:03:02;96588.19;;;11.82;67.09
30873;BME280;17579;42.690;2.586;2023-02-23T09:05:30;96593.66;;;11.81;67.58
30873;BME280;17579;42.690;2.586;2023-02-23T09:07:55;96595.47;;;11.80;67.62
30873;BME280;17579;42.690;2.586;2023-02-23T09:10:21;96605.28;;;11.79;67.52
30873;BME280;17579;42.690;2.586;2023-02-23T09:12:50;96600.09;;;11.86;67.24
30873;BME280;17579;42.690;2.586;2023-02-23T09:15:15;96610.84;;;11.93;67.45
30873;BME280;17579;42.690;2.586;2023-02-23T09:17:41;96607.69;;;11.89;67.26
30873;BME280;17579;42.690;2.586;2023-02-23T09:20:10;96601.25;;;11.84;67.57
30873;BME280;17579;42.690;2.586;2023-02-23T09:22:39;96604.25;;;11.89;67.90
30873;BME280;17579;42.690;2.586;2023-02-23T09:25:05;96601.78;;;11.95;68.07
30873;BME280;17579;42.690;2.586;2023-02-23T09:27:30;96607.56;;;11.99;67.93
30873;BME280;17579;42.690;2.586;2023-02-23T09:29:56;96610.03;;;12.01;67.99
30873;BME280;17579;42.690;2.586;2023-02-23T09:32:22;96605.25;;;11.96;67.32
30873;BME280;17579;42.690;2.586;2023-02-23T09:34:47;96602.56;;;11.88;67.17
30873;BME280;17579;42.690;2.586;2023-02-23T09:37:14;96593.81;;;11.87;67.23
30873;BME280;17579;42.690;2.586;2023-02-23T09:39:40;96594.97;;;11.93;67.82
30873;BME280;17579;42.690;2.586;2023-02-23T09:42:12;96585.53;;;11.99;67.38
30873;BME280;17579;42.690;2.586;2023-02-23T09:45:03;96572.91;;;12.09;67.38
30873;BME280;17579;42.690;2.586;2023-02-23T09:47:39;96569.69;;;12.30;67.44
30873;BME280;17579;42.690;2.586;2023-02-23T09:50:16;96567.47;;;12.42;67.69
30873;BME280;17579;42.690;2.586;2023-02-23T09:52:44;96580.03;;;12.48;67.38
30873;BME280;17579;42.690;2.586;2023-02-23T09:55:12;96579.66;;;12.51;66.52
30873;BME280;17579;42.690;2.586;2023-02-23T09:57:43;96576.56;;;12.47;66.26
30873;BME280;17579;42.690;2.586;2023-02-23T10:00:24;96574.59;;;12.41;66.69
30873;BME280;17579;42.690;2.586;2023-02-23T10:03:15;96580.19;;;12.46;66.69
30873;BME280;17579;42.690;2.586;2023-02-23T10:05:46;96578.31;;;12.55;66.59
30873;BME280;17579;42.690;2.586;2023-02-23T10:08:20;96574.66;;;12.64;66.70
30873;BME280;17579;42.690;2.586;2023-02-23T10:10:50;96579.84;;;12.81;66.78
30873;BME280;17579;42.690;2.586;2023-02-23T10:13:40;96578.84;;;12.82;66.62
30873;BME280;17579;42.690;2.586;2023-02-23T10:16:14;96572.47;;;12.91;65.82
30873;BME280;17579;42.690;2.586;2023-02-23T10:18:53;96560.31;;;12.97;66.20
30873;BME280;17579;42.690;2.586;2023-02-23T10:21:32;96566.13;;;13.00;65.96
30873;BME280;17579;42.690;2.586;2023-02-23T10:24:08;96567.78;;;13.02;65.92
30873;BME280;17579;42.690;2.586;2023-02-23T10:26:41;96553.19;;;12.97;65.62
30873;BME280;17579;42.690;2.586;2023-02-23T10:29:20;96557.38;;;12.92;65.98
30873;BME280;17579;42.690;2.586;2023-02-23T10:31:50;96555.31;;;13.02;66.12
30873;BME280;17579;42.690;2.586;2023-02-23T10:34:18;96567.31;;;13.13;65.75
30873;BME280;17579;42.690;2.586;2023-02-23T10:36:58;96559.28;;;13.06;65.88
30873;BME280;17579;42.690;2.586;2023-02-23T10:39:25;96566.38;;;13.06;66.27
30873;BME280;17579;42.690;2.586;2023-02-23T10:41:51;96572.06;;;13.03;66.42
30873;BME280;17579;42.690;2.586;2023-02-23T10:44:20;96558.59;;;13.04;66.03
30873;BME280;17579;42.690;2.586;2023-02-23T10:46:52;96559.72;;;13.10;66.07
30873;BME280;17579;42.690;2.586;2023-02-23T10:49:21;96568.63;;;13.17;65.97
30873;BME280;17579;42.690;2.586;2023-02-23T10:51:48;96564.78;;;13.20;65.39
30873;BME280;17579;42.690;2.586;2023-02-23T10:54:34;96559.03;;;13.16;65.93
30873;BME280;17579;42.690;2.586;2023-02-23T10:57:00;96568.13;;;13.22;65.41
30873;BME280;17579;42.690;2.586;2023-02-23T10:59:26;96569.75;;;13.23;65.19
30873;BME280;17579;42.690;2.586;2023-02-23T11:01:52;96571.34;;;13.32;65.92
30873;BME280;17579;42.690;2.586;2023-02-23T11:04:30;96565.53;;;13.51;66.41
30873;BME280;17579;42.690;2.586;2023-02-23T11:07:05;96548.72;;;13.74;65.81
30873;BME280;17579;42.690;2.586;2023-02-23T11:09:32;96546.97;;;13.96;65.54
30873;BME280;17579;42.690;2.586;2023-02-23T11:14:33;96537.25;;;14.18;64.57
30873;BME280;17579;42.690;2.586;2023-02-23T11:16:59;96532.28;;;14.30;64.34
30873;BME280;17579;42.690;2.586;2023-02-23T11:19:31;96528.41;;;14.33;63.58
30873;BME280;17579;42.690;2.586;2023-02-23T11:21:57;96523.53;;;14.36;63.82
30873;BME280;17579;42.690;2.586;2023-02-23T11:24:27;96515.81;;;14.42;63.75
30873;BME280;17579;42.690;2.586;2023-02-23T11:26:56;96512.75;;;14.60;63.62
30873;BME280;17579;42.690;2.586;2023-02-23T11:29:29;96511.03;;;14.67;64.14
30873;BME280;17579;42.690;2.586;2023-02-23T11:31:58;96497.06;;;14.65;63.38
30873;BME280;17579;42.690;2.586;2023-02-23T11:34:31;96493.09;;;14.61;63.95
30873;BME280;17579;42.690;2.586;2023-02-23T11:37:00;96485.31;;;14.59;62.90
30873;BME280;17579;42.690;2.586;2023-02-23T11:39:26;96493.34;;;14.44;63.34
30873;BME280;17579;42.690;2.586;2023-02-23T11:42:02;96496.63;;;14.46;63.43
30873;BME280;17579;42.690;2.586;2023-02-23T11:44:28;96504.69;;;14.53;62.89
30873;BME280;17579;42.690;2.586;2023-02-23T11:46:53;96487.84;;;14.46;62.86
30873;BME280;17579;42.690;2.586;2023-02-23T11:49:26;96483.47;;;14.38;62.63
30873;BME280;17579;42.690;2.586;2023-02-23T11:51:53;96484.72;;;14.42;63.07
30873;BME280;17579;42.690;2.586;2023-02-23T11:54:21;96480.38;;;14.56;63.12
30873;BME280;17579;42.690;2.586;2023-02-23T11:56:49;96473.13;;;14.65;62.75
30873;BME280;17579;42.690;2.586;2023-02-23T11:59:17;96458.81;;;14.66;62.24
30873;BME280;17579;42.690;2.586;2023-02-23T12:06:40;96452.75;;;14.57;62.15
30873;BME280;17579;42.690;2.586;2023-02-23T12:11:37;96443.22;;;14.63;62.82
30873;BME280;17579;42.690;2.586;2023-02-23T12:14:06;96439.28;;;14.80;62.88
30873;BME280;17579;42.690;2.586;2023-02-23T12:16:40;96446.09;;;14.89;61.82
30873;BME280;17579;42.690;2.586;2023-02-23T12:19:22;96452.13;;;14.77;61.65
30873;BME280;17579;42.690;2.586;2023-02-23T12:27:14;96431.97;;;14.46;62.47
30873;BME280;17579;42.690;2.586;2023-02-23T12:32:33;96421.75;;;14.49;62.63
30873;BME280;17579;42.690;2.586;2023-02-23T12:35:09;96427.84;;;14.43;62.62
30873;BME280;17579;42.690;2.586;2023-02-23T12:37:42;96418.34;;;14.34;62.60
30873;BME280;17579;42.690;2.586;2023-02-23T12:40:15;96413.56;;;14.29;62.73
30873;BME280;17579;42.690;2.586;2023-02-23T12:42:49;96409.47;;;14.27;62.82
30873;BME280;17579;42.690;2.586;2023-02-23T12:45:22;96411.50;;;14.25;63.26
30873;BME280;17579;42.690;2.586;2023-02-23T12:47:52;96412.69;;;14.22;63.24
30873;BME280;17579;42.690;2.586;2023-02-23T12:50:26;96402.00;;;14.15;63.18
30873;BME280;17579;42.690;2.586;2023-02-23T12:52:56;96396.22;;;14.12;63.27
30873;BME280;17579;42.690;2.586;2023-02-23T12:55:33;96393.56;;;14.12;63.68
30873;BME280;17579;42.690;2.586;2023-02-23T12:58:12;96394.22;;;14.14;63.71
30873;BME280;17579;42.690;2.586;2023-02-23T13:00:46;96383.56;;;14.14;63.67
30873;BME280;17579;42.690;2.586;2023-02-23T13:03:31;96379.25;;;14.13;63.47
30873;BME280;17579;42.690;2.586;2023-02-23T13:06:09;96384.38;;;14.14;63.37
30873;BME280;17579;42.690;2.586;2023-02-23T13:08:50;96381.22;;;14.04;63.61
30873;BME280;17579;42.690;2.586;2023-02-23T13:11:34;96376.91;;;14.03;63.85
30873;BME280;17579;42.690;2.586;2023-02-23T13:14:19;96374.81;;;13.98;63.55
30873;BME280;17579;42.690;2.586;2023-02-23T13:16:51;96370.97;;;14.01;63.75
30873;BME280;17579;42.690;2.586;2023-02-23T13:19:27;96365.25;;;14.04;63.94
30873;BME280;17579;42.690;2.586;2023-02-23T13:22:25;96370.69;;;13.96;63.99
30873;BME280;17579;42.690;2.586;2023-02-23T13:24:56;96364.25;;;14.05;63.91
30873;BME280;17579;42.690;2.586;2023-02-23T13:27:33;96359.47;;;14.00;64.05
30873;BME280;17579;42.690;2.586;2023-02-23T13:30:01;96360.56;;;14.06;63.37
30873;BME280;17579;42.690;2.586;2023-02-23T13:32:30;96358.28;;;14.03;63.66
30873;BME280;17579;42.690;2.586;2023-02-23T13:34:58;96355.25;;;14.06;63.75
30873;BME280;17579;42.690;2.586;2023-02-23T13:37:30;96352.97;;;14.03;63.81
30873;BME280;17579;42.690;2.586;2023-02-23T13:40:47;96344.75;;;13.98;63.89
30873;BME280;17579;42.690;2.586;2023-02-23T13:43:14;96353.25;;;14.08;63.40
30873;BME280;17579;42.690;2.586;2023-02-23T13:45:56;96355.44;;;14.04;63.49
30873;BME280;17579;42.690;2.586;2023-02-23T13:48:30;96352.59;;;14.06;63.67
30873;BME280;17579;42.690;2.586;2023-02-23T13:51:05;96350.78;;;14.07;63.52
30873;BME280;17579;42.690;2.586;2023-02-23T13:53:37;96354.88;;;14.09;63.74
30873;BME280;17579;42.690;2.586;2023-02-23T13:56:07;96352.22;;;14.09;63.90